createdAt,value
2024-01-29T00:01:57.263Z,102403.16
2024-01-29T00:04:23.988Z,102407.22
2024-01-29T00:06:50.836Z,102396.59
2024-01-29T00:09:19.307Z,102403.16
2024-01-29T00:11:46.009Z,102398.13
2024-01-29T00:14:12.625Z,102409.75
2024-01-29T00:16:39.139Z,102406.22
2024-01-29T00:19:05.878Z,102406.78
2024-01-29T00:21:32.531Z,102393.94
2024-01-29T00:24:01.802Z,102410.84
2024-01-29T00:26:28.982Z,102421.06
2024-01-29T00:28:55.809Z,102407.50
2024-01-29T00:31:23.932Z,102415.88
2024-01-29T00:33:52.874Z,102405.41
2024-01-29T00:36:19.699Z,102408.88
2024-01-29T00:38:46.566Z,102397.69
2024-01-29T00:41:13.190Z,102424.97
2024-01-29T00:43:39.745Z,102413.63
2024-01-29T00:46:06.432Z,102421.16
2024-01-29T00:48:33.074Z,102431.38
2024-01-29T00:50:59.726Z,102424.38
2024-01-29T00:53:26.482Z,102417.81
2024-01-29T00:55:54.781Z,102412.66
2024-01-29T00:58:21.544Z,102425.94
2024-01-29T01:00:51.925Z,102431.38
2024-01-29T01:03:18.712Z,102434.75
2024-01-29T01:05:45.310Z,102431.38
2024-01-29T01:08:11.934Z,102446.44
2024-01-29T01:10:38.497Z,102435.81
2024-01-29T01:13:05.065Z,102453.16
2024-01-29T01:15:31.640Z,102439.72
2024-01-29T01:17:58.286Z,102438.88
2024-01-29T01:20:25.402Z,102438.47
2024-01-29T01:22:52.148Z,102437.47
2024-01-29T01:25:18.775Z,102431.97
2024-01-29T01:27:45.445Z,102431.59
2024-01-29T01:30:12.229Z,102427.13
2024-01-29T01:32:39.134Z,102427.66
2024-01-29T01:35:06.327Z,102419.84
2024-01-29T01:37:33.014Z,102420.09
2024-01-29T01:39:59.740Z,102438.53
2024-01-29T01:42:26.508Z,102434.78
2024-01-29T01:44:53.964Z,102429.56
2024-01-29T01:47:20.654Z,102428.59
2024-01-29T01:49:47.618Z,102439.03
2024-01-29T01:52:16.572Z,102444.47
2024-01-29T01:54:43.893Z,102453.38
2024-01-29T01:57:10.968Z,102446.41
2024-01-29T01:59:39.694Z,102434.56
2024-01-29T02:02:07.926Z,102434.31
2024-01-29T02:04:34.829Z,102442.75
2024-01-29T02:07:01.654Z,102441.94
2024-01-29T02:09:28.672Z,102450.03
2024-01-29T02:11:55.514Z,102429.91
2024-01-29T02:14:22.027Z,102432.97
2024-01-29T02:16:48.629Z,102436.59
2024-01-29T02:19:18.729Z,102446.50
2024-01-29T02:21:45.989Z,102438.34
2024-01-29T02:24:12.872Z,102437.19
2024-01-29T02:26:39.409Z,102437.72
2024-01-29T02:29:05.975Z,102434.56
2024-01-29T02:31:32.637Z,102434.03
2024-01-29T02:33:59.332Z,102435.84
2024-01-29T02:36:25.990Z,102435.13
2024-01-29T02:38:52.605Z,102437.78
2024-01-29T02:41:19.139Z,102436.69
2024-01-29T02:43:45.764Z,102446.47
2024-01-29T02:46:12.363Z,102433.06
2024-01-29T02:48:40.016Z,102441.00
2024-01-29T02:51:07.737Z,102432.91
2024-01-29T02:53:34.620Z,102437.53
2024-01-29T02:56:01.191Z,102437.25
2024-01-29T02:58:27.913Z,102429.88
2024-01-29T03:00:54.707Z,102431.81
2024-01-29T03:03:21.565Z,102442.41
2024-01-29T03:05:48.368Z,102445.34
2024-01-29T03:08:15.044Z,102460.41
2024-01-29T03:10:41.605Z,102453.59
2024-01-29T03:13:08.317Z,102453.28
2024-01-29T03:15:34.951Z,102451.63
2024-01-29T03:18:01.750Z,102443.16
2024-01-29T03:20:28.468Z,102433.81
2024-01-29T03:22:55.180Z,102457.56
2024-01-29T03:25:21.707Z,102460.00
2024-01-29T03:27:48.256Z,102469.91
2024-01-29T03:30:14.998Z,102474.25
2024-01-29T03:32:41.668Z,102471.75
2024-01-29T03:35:09.592Z,102475.63
2024-01-29T03:37:36.129Z,102479.47
2024-01-29T03:40:05.945Z,102472.00
2024-01-29T03:42:32.639Z,102487.72
2024-01-29T03:44:59.225Z,102471.94
2024-01-29T03:47:25.764Z,102475.31
2024-01-29T03:49:52.729Z,102483.50
2024-01-29T03:52:19.601Z,102473.16
2024-01-29T03:54:46.221Z,102472.66
2024-01-29T03:57:12.796Z,102469.41
2024-01-29T03:59:39.306Z,102462.56
2024-01-29T04:02:05.889Z,102459.06
2024-01-29T04:04:33.195Z,102456.56
2024-01-29T04:07:00.083Z,102452.22
2024-01-29T04:09:26.828Z,102461.88
2024-01-29T04:11:53.504Z,102458.63
2024-01-29T04:14:23.378Z,102451.25
2024-01-29T04:16:50.650Z,102442.84
2024-01-29T04:21:44.514Z,102444.63
2024-01-29T04:24:14.261Z,102453.50
2024-01-29T04:26:41.766Z,102464.25
2024-01-29T04:29:10.209Z,102453.91
2024-01-29T04:31:36.984Z,102451.13
2024-01-29T04:34:04.458Z,102459.22
2024-01-29T04:36:31.327Z,102447.19
2024-01-29T04:38:57.864Z,102443.56
2024-01-29T04:41:24.408Z,102460.03
2024-01-29T04:43:51.155Z,102455.47
2024-01-29T04:46:17.743Z,102442.31
2024-01-29T04:48:44.366Z,102451.00
2024-01-29T04:51:11.399Z,102441.25
2024-01-29T04:53:38.495Z,102448.47
2024-01-29T04:56:05.523Z,102454.34
2024-01-29T04:58:32.387Z,102448.78
2024-01-29T05:01:00.525Z,102449.03
2024-01-29T05:03:28.031Z,102455.72
2024-01-29T05:05:55.560Z,102461.53
2024-01-29T05:08:22.408Z,102470.19
2024-01-29T05:10:49.187Z,102479.00
2024-01-29T05:13:16.511Z,102490.47
2024-01-29T05:15:43.269Z,102502.16
2024-01-29T05:18:09.995Z,102500.88
2024-01-29T05:20:37.135Z,102504.59
2024-01-29T05:23:03.970Z,102500.19
2024-01-29T05:25:30.728Z,102495.16
2024-01-29T05:27:57.309Z,102502.59
2024-01-29T05:30:24.934Z,102506.56
2024-01-29T05:32:51.736Z,102502.56
2024-01-29T05:35:18.423Z,102506.13
2024-01-29T05:37:45.064Z,102508.78
2024-01-29T05:40:14.940Z,102509.88
2024-01-29T05:42:41.604Z,102492.50
2024-01-29T05:45:08.825Z,102504.25
2024-01-29T05:47:35.489Z,102495.63
2024-01-29T05:50:04.201Z,102490.03
2024-01-29T05:52:30.955Z,102494.63
2024-01-29T05:54:57.604Z,102495.47
2024-01-29T05:57:24.315Z,102486.28
2024-01-29T05:59:50.993Z,102494.25
2024-01-29T06:02:17.665Z,102482.22
2024-01-29T06:04:44.286Z,102484.16
2024-01-29T06:07:11.161Z,102475.91
2024-01-29T06:09:37.792Z,102485.00
2024-01-29T06:12:04.594Z,102482.47
2024-01-29T06:14:32.035Z,102488.75
2024-01-29T06:16:58.901Z,102485.50
2024-01-29T06:19:26.074Z,102495.97
2024-01-29T06:21:52.811Z,102514.03
2024-01-29T06:24:19.411Z,102495.13
2024-01-29T06:26:48.781Z,102503.06
2024-01-29T06:29:16.050Z,102493.19
2024-01-29T06:31:42.881Z,102490.66
2024-01-29T06:34:09.810Z,102498.41
2024-01-29T06:36:36.602Z,102496.00
2024-01-29T06:39:04.426Z,102499.94
2024-01-29T06:41:32.394Z,102507.53
2024-01-29T06:43:59.275Z,102506.47
2024-01-29T06:46:26.153Z,102514.94
2024-01-29T06:48:52.815Z,102511.94
2024-01-29T06:51:19.505Z,102516.97
2024-01-29T06:53:46.124Z,102532.50
2024-01-29T06:56:12.783Z,102520.44
2024-01-29T07:01:07.044Z,102514.75
2024-01-29T07:03:34.400Z,102514.25
2024-01-29T07:06:01.516Z,102526.78
2024-01-29T07:08:28.106Z,102518.81
2024-01-29T07:10:55.453Z,102515.34
2024-01-29T07:13:21.979Z,102518.03
2024-01-29T07:15:48.571Z,102524.31
2024-01-29T07:18:15.170Z,102527.06
2024-01-29T07:20:44.167Z,102527.69
2024-01-29T07:23:10.908Z,102525.88
2024-01-29T07:25:39.806Z,102537.31
2024-01-29T07:28:07.181Z,102551.13
2024-01-29T07:30:33.963Z,102531.88
2024-01-29T07:33:01.682Z,102537.28
2024-01-29T07:35:28.462Z,102545.34
2024-01-29T07:37:55.185Z,102551.63
2024-01-29T07:40:22.137Z,102570.03
2024-01-29T07:42:48.809Z,102570.63
2024-01-29T07:45:15.874Z,102573.41
2024-01-29T07:47:42.615Z,102566.69
2024-01-29T07:50:09.805Z,102569.56
2024-01-29T07:52:37.602Z,102561.50
2024-01-29T07:55:04.674Z,102562.09
2024-01-29T07:57:31.955Z,102555.97
2024-01-29T07:59:58.877Z,102566.78
2024-01-29T08:02:25.742Z,102574.28
2024-01-29T08:04:52.595Z,102569.22
2024-01-29T08:07:19.374Z,102574.38
2024-01-29T08:09:46.528Z,102572.84
2024-01-29T08:12:13.204Z,102564.63
2024-01-29T08:14:40.352Z,102566.31
2024-01-29T08:17:07.272Z,102568.28
2024-01-29T08:19:34.167Z,102575.66
2024-01-29T08:22:01.001Z,102580.22
2024-01-29T08:24:28.117Z,102566.19
2024-01-29T08:26:54.737Z,102556.03
2024-01-29T08:29:21.734Z,102557.31
2024-01-29T08:31:48.388Z,102574.28
2024-01-29T08:34:15.163Z,102570.66
2024-01-29T08:36:41.919Z,102564.13
2024-01-29T08:39:08.532Z,102570.28
2024-01-29T08:41:35.473Z,102565.31
2024-01-29T08:44:04.452Z,102558.00
2024-01-29T08:46:31.311Z,102561.22
2024-01-29T08:48:58.087Z,102544.56
2024-01-29T08:51:24.995Z,102555.94
2024-01-29T08:53:51.658Z,102550.91
2024-01-29T08:56:19.230Z,102546.88
2024-01-29T08:58:45.976Z,102557.09
2024-01-29T09:01:12.609Z,102562.38
2024-01-29T09:03:42.530Z,102543.97
2024-01-29T09:06:10.010Z,102550.81
2024-01-29T09:08:37.728Z,102555.59
2024-01-29T09:11:04.356Z,102565.53
2024-01-29T09:13:30.934Z,102560.06
2024-01-29T09:15:57.604Z,102555.72
2024-01-29T09:18:24.757Z,102568.94
2024-01-29T09:20:51.354Z,102567.75
2024-01-29T09:23:17.920Z,102583.00
2024-01-29T09:25:44.457Z,102581.34
2024-01-29T09:28:11.063Z,102592.25
2024-01-29T09:30:37.793Z,102582.53
2024-01-29T09:33:14.966Z,102581.69
2024-01-29T09:35:45.157Z,102582.28
2024-01-29T09:38:11.722Z,102586.38
2024-01-29T09:40:38.422Z,102592.66
2024-01-29T09:43:07.009Z,102589.34
2024-01-29T09:45:37.439Z,102595.50
2024-01-29T09:48:05.060Z,102589.28
2024-01-29T09:50:31.928Z,102594.47
2024-01-29T09:53:01.073Z,102595.00
2024-01-29T09:55:28.602Z,102603.03
2024-01-29T09:57:55.409Z,102600.47
2024-01-29T10:00:22.058Z,102608.66
2024-01-29T10:02:49.600Z,102606.41
2024-01-29T10:05:16.640Z,102621.16
2024-01-29T10:07:43.548Z,102622.66
2024-01-29T10:10:11.211Z,102629.59
2024-01-29T10:12:38.331Z,102630.44
2024-01-29T10:15:05.896Z,102635.66
2024-01-29T10:17:33.652Z,102632.34
2024-01-29T10:20:00.530Z,102633.03
2024-01-29T10:22:28.939Z,102641.88
2024-01-29T10:25:05.159Z,102638.34
2024-01-29T10:27:31.903Z,102635.63
2024-01-29T10:29:58.837Z,102631.34
2024-01-29T10:32:25.522Z,102640.63
2024-01-29T10:34:52.395Z,102621.06
2024-01-29T10:37:21.859Z,102632.38
2024-01-29T10:39:56.560Z,102626.28
2024-01-29T10:42:30.832Z,102626.44
2024-01-29T10:45:00.342Z,102633.69
2024-01-29T10:47:31.830Z,102629.38
2024-01-29T10:49:59.409Z,102631.13
2024-01-29T10:52:27.786Z,102616.41
2024-01-29T10:54:56.977Z,102628.53
2024-01-29T10:57:24.407Z,102625.84
2024-01-29T10:59:52.827Z,102635.69
2024-01-29T11:02:19.655Z,102621.13
2024-01-29T11:04:46.314Z,102623.53
2024-01-29T11:07:19.192Z,102603.50
2024-01-29T11:09:52.115Z,102612.16
2024-01-29T11:12:18.894Z,102600.31
2024-01-29T11:14:57.325Z,102606.91
2024-01-29T11:17:23.845Z,102594.72
2024-01-29T11:19:52.189Z,102603.03
2024-01-29T11:22:18.797Z,102604.88
2024-01-29T11:24:47.161Z,102609.09
2024-01-29T11:27:14.004Z,102603.25
2024-01-29T11:29:40.583Z,102594.84
2024-01-29T11:32:10.866Z,102587.63
2024-01-29T11:34:38.305Z,102589.09
2024-01-29T11:37:05.047Z,102603.41
2024-01-29T11:39:31.672Z,102596.63
2024-01-29T11:41:59.086Z,102589.31
2024-01-29T11:44:26.367Z,102601.19
2024-01-29T11:46:55.691Z,102593.78
2024-01-29T11:49:26.900Z,102597.59
2024-01-29T11:51:56.046Z,102591.16
2024-01-29T11:54:24.940Z,102575.78
2024-01-29T11:56:51.495Z,102582.06
2024-01-29T11:59:18.110Z,102590.72
2024-01-29T12:01:45.449Z,102601.91
2024-01-29T12:04:17.157Z,102594.03
2024-01-29T12:06:45.721Z,102599.53
2024-01-29T12:09:13.197Z,102600.56
2024-01-29T12:11:40.081Z,102601.06
2024-01-29T12:14:09.170Z,102594.16
2024-01-29T12:16:35.756Z,102578.56
2024-01-29T12:19:02.563Z,102582.25
2024-01-29T12:21:29.401Z,102593.13
2024-01-29T12:23:56.893Z,102585.56
2024-01-29T12:26:29.288Z,102581.78
2024-01-29T12:29:00.244Z,102563.72
2024-01-29T12:31:28.167Z,102570.59
2024-01-29T12:33:54.877Z,102564.72
2024-01-29T12:36:21.597Z,102568.91
2024-01-29T12:38:58.497Z,102569.41
2024-01-29T12:41:27.264Z,102568.88
2024-01-29T12:43:53.887Z,102578.22
2024-01-29T12:46:20.652Z,102579.44
2024-01-29T12:48:47.664Z,102578.44
2024-01-29T12:51:15.812Z,102572.75
2024-01-29T12:53:53.769Z,102580.09
2024-01-29T12:56:20.440Z,102565.75
2024-01-29T12:58:46.967Z,102570.03
2024-01-29T13:01:13.560Z,102558.47
2024-01-29T13:03:41.393Z,102574.66
2024-01-29T13:06:08.631Z,102576.19
2024-01-29T13:08:36.476Z,102558.44
2024-01-29T13:11:03.163Z,102566.34
2024-01-29T13:13:30.055Z,102573.84
2024-01-29T13:15:57.321Z,102568.63
2024-01-29T13:18:26.594Z,102570.59
2024-01-29T13:20:53.284Z,102563.66
2024-01-29T13:23:20.128Z,102561.69
2024-01-29T13:25:48.282Z,102555.47
2024-01-29T13:28:15.192Z,102564.00
2024-01-29T13:30:42.012Z,102569.31
2024-01-29T13:33:08.654Z,102566.59
2024-01-29T13:35:35.299Z,102553.44
2024-01-29T13:38:01.874Z,102561.50
2024-01-29T13:40:29.814Z,102561.84
2024-01-29T13:42:57.825Z,102550.16
2024-01-29T13:45:24.658Z,102545.13
2024-01-29T13:47:53.603Z,102552.19
2024-01-29T13:50:20.907Z,102552.31
2024-01-29T13:52:47.905Z,102562.84
2024-01-29T13:55:14.723Z,102548.38
2024-01-29T13:57:41.456Z,102557.75
2024-01-29T14:00:10.734Z,102548.81
2024-01-29T14:02:37.435Z,102548.50
2024-01-29T14:05:06.006Z,102558.38
2024-01-29T14:07:33.597Z,102557.03
2024-01-29T14:10:01.413Z,102568.44
2024-01-29T14:12:28.235Z,102568.56
2024-01-29T14:14:56.484Z,102561.88
2024-01-29T14:17:23.036Z,102566.47
2024-01-29T14:19:51.073Z,102567.81
2024-01-29T14:22:19.851Z,102568.41
2024-01-29T14:24:46.693Z,102582.44
2024-01-29T14:27:16.027Z,102577.38
2024-01-29T14:29:42.577Z,102578.56
2024-01-29T14:32:14.953Z,102581.91
2024-01-29T14:34:42.109Z,102574.53
2024-01-29T14:37:08.981Z,102592.44
2024-01-29T14:39:36.760Z,102596.31
2024-01-29T14:42:03.628Z,102593.66
2024-01-29T14:44:33.231Z,102605.31
2024-01-29T14:47:01.489Z,102596.31
2024-01-29T14:49:29.327Z,102595.00
2024-01-29T14:51:56.377Z,102590.97
2024-01-29T14:54:25.138Z,102600.53
2024-01-29T14:56:52.092Z,102595.00
2024-01-29T14:59:19.379Z,102595.03
2024-01-29T15:01:46.197Z,102601.88
2024-01-29T15:04:13.513Z,102604.22
2024-01-29T15:06:40.598Z,102596.19
2024-01-29T15:09:08.720Z,102611.03
2024-01-29T15:11:35.356Z,102608.31
2024-01-29T15:14:01.933Z,102599.81
2024-01-29T15:16:28.470Z,102603.47
2024-01-29T15:18:55.176Z,102604.47
2024-01-29T15:21:21.836Z,102605.28
2024-01-29T15:23:48.379Z,102611.19
2024-01-29T15:26:16.019Z,102606.44
2024-01-29T15:28:42.960Z,102605.78
2024-01-29T15:31:09.812Z,102608.72
2024-01-29T15:33:36.616Z,102606.75
2024-01-29T15:36:04.904Z,102602.25
2024-01-29T15:38:31.503Z,102600.19
2024-01-29T15:40:58.222Z,102599.69
2024-01-29T15:43:25.575Z,102597.44
2024-01-29T15:45:53.219Z,102598.28
2024-01-29T15:48:20.808Z,102598.38
2024-01-29T15:50:47.457Z,102619.06
2024-01-29T15:53:14.125Z,102611.84
2024-01-29T15:55:40.736Z,102618.91
2024-01-29T15:58:09.985Z,102620.41
2024-01-29T16:00:40.149Z,102613.84
2024-01-29T16:03:06.997Z,102616.25
2024-01-29T16:05:34.219Z,102624.28
2024-01-29T16:10:32.730Z,102619.50
2024-01-29T16:12:59.372Z,102614.47
2024-01-29T16:15:27.472Z,102612.44
2024-01-29T16:17:54.206Z,102603.19
2024-01-29T16:20:20.904Z,102606.81
2024-01-29T16:22:47.588Z,102602.66
2024-01-29T16:25:15.949Z,102609.34
2024-01-29T16:27:45.543Z,102593.19
2024-01-29T16:30:12.416Z,102602.13
2024-01-29T16:32:39.234Z,102603.66
2024-01-29T16:35:06.488Z,102599.44
2024-01-29T16:37:34.015Z,102600.63
2024-01-29T16:40:00.781Z,102601.31
2024-01-29T16:42:27.547Z,102600.78
2024-01-29T16:44:54.146Z,102606.19
2024-01-29T16:47:20.671Z,102605.50
2024-01-29T16:49:48.246Z,102614.72
2024-01-29T16:52:15.263Z,102620.59
2024-01-29T16:54:41.992Z,102616.25
2024-01-29T16:57:08.807Z,102609.28
2024-01-29T16:59:37.925Z,102625.00
2024-01-29T17:02:07.577Z,102618.59
2024-01-29T17:04:37.135Z,102625.09
2024-01-29T17:07:04.326Z,102623.34
2024-01-29T17:09:33.079Z,102619.19
2024-01-29T17:11:59.890Z,102631.88
2024-01-29T17:14:26.504Z,102622.41
2024-01-29T17:16:53.039Z,102625.72
2024-01-29T17:19:19.800Z,102628.84
2024-01-29T17:21:46.533Z,102622.97
2024-01-29T17:24:13.159Z,102612.53
2024-01-29T17:26:39.720Z,102617.44
2024-01-29T17:29:06.265Z,102612.09
2024-01-29T17:31:32.790Z,102618.44
2024-01-29T17:33:59.516Z,102618.69
2024-01-29T17:36:26.479Z,102618.19
2024-01-29T17:38:53.086Z,102622.41
2024-01-29T17:41:21.436Z,102623.25
2024-01-29T17:43:49.367Z,102622.28
2024-01-29T17:46:16.405Z,102616.56
2024-01-29T17:48:43.472Z,102615.53
2024-01-29T17:51:12.041Z,102614.63
2024-01-29T17:53:38.526Z,102616.84
2024-01-29T17:56:05.447Z,102618.41
2024-01-29T17:58:32.059Z,102616.00
2024-01-29T18:00:58.690Z,102610.50
2024-01-29T18:03:25.675Z,102606.47
2024-01-29T18:05:52.513Z,102609.34
2024-01-29T18:08:20.596Z,102629.50
2024-01-29T18:10:47.171Z,102616.47
2024-01-29T18:13:13.835Z,102613.34
2024-01-29T18:15:40.525Z,102618.22
2024-01-29T18:18:07.276Z,102613.41
2024-01-29T18:20:33.838Z,102621.94
2024-01-29T18:23:01.693Z,102625.63
2024-01-29T18:25:28.306Z,102619.28
2024-01-29T18:27:54.862Z,102623.94
2024-01-29T18:30:21.472Z,102626.00
2024-01-29T18:32:48.078Z,102628.75
2024-01-29T18:35:14.868Z,102621.72
2024-01-29T18:37:44.317Z,102616.56
2024-01-29T18:40:11.571Z,102599.91
2024-01-29T18:42:38.302Z,102595.72
2024-01-29T18:45:05.742Z,102602.78
2024-01-29T18:47:32.370Z,102619.13
2024-01-29T18:49:58.993Z,102604.06
2024-01-29T18:52:25.753Z,102597.16
2024-01-29T18:54:52.369Z,102600.25
2024-01-29T18:57:18.985Z,102597.53
2024-01-29T18:59:45.682Z,102598.16
2024-01-29T19:02:12.273Z,102607.00
2024-01-29T19:04:39.312Z,102591.13
2024-01-29T19:07:06.059Z,102601.13
2024-01-29T19:09:32.650Z,102601.13
2024-01-29T19:11:59.284Z,102591.56
2024-01-29T19:14:26.141Z,102615.06
2024-01-29T19:16:52.685Z,102601.00
2024-01-29T19:19:19.679Z,102608.31
2024-01-29T19:21:46.313Z,102587.50
2024-01-29T19:24:12.895Z,102607.66
2024-01-29T19:26:39.568Z,102605.13
2024-01-29T19:29:06.432Z,102594.09
2024-01-29T19:31:33.006Z,102585.28
2024-01-29T19:33:59.748Z,102588.59
2024-01-29T19:36:26.353Z,102594.44
2024-01-29T19:38:53.649Z,102605.00
2024-01-29T19:41:20.385Z,102584.16
2024-01-29T19:43:47.054Z,102586.81
2024-01-29T19:46:13.897Z,102579.44
2024-01-29T19:48:41.152Z,102579.16
2024-01-29T19:51:08.220Z,102577.91
2024-01-29T19:53:35.193Z,102584.47
2024-01-29T19:56:01.799Z,102583.31
2024-01-29T19:58:28.364Z,102581.34
2024-01-29T20:00:55.094Z,102587.72
2024-01-29T20:03:21.773Z,102573.50
2024-01-29T20:05:49.436Z,102582.88
2024-01-29T20:08:16.137Z,102578.53
2024-01-29T20:10:42.840Z,102579.66
2024-01-29T20:13:10.389Z,102584.34
2024-01-29T20:15:37.685Z,102578.31
2024-01-29T20:18:04.709Z,102587.91
2024-01-29T20:20:31.362Z,102581.03
2024-01-29T20:23:01.008Z,102578.53
2024-01-29T20:25:28.280Z,102589.94
2024-01-29T20:27:55.495Z,102592.09
2024-01-29T20:30:22.686Z,102587.53
2024-01-29T20:32:52.507Z,102584.50
2024-01-29T20:35:22.740Z,102584.97
2024-01-29T20:37:51.928Z,102575.59
2024-01-29T20:40:19.330Z,102585.59
2024-01-29T20:42:45.976Z,102578.22
2024-01-29T20:45:12.583Z,102578.56
2024-01-29T20:47:39.298Z,102563.34
2024-01-29T20:50:09.203Z,102572.19
2024-01-29T20:52:35.818Z,102560.03
2024-01-29T20:55:07.724Z,102566.00
2024-01-29T20:57:40.930Z,102565.38
2024-01-29T21:00:08.168Z,102570.81
2024-01-29T21:02:34.799Z,102564.13
2024-01-29T21:05:01.925Z,102551.00
2024-01-29T21:07:30.136Z,102573.66
2024-01-29T21:09:56.799Z,102565.66
2024-01-29T21:12:23.608Z,102556.66
2024-01-29T21:14:50.230Z,102562.97
2024-01-29T21:17:16.866Z,102562.75
2024-01-29T21:19:45.773Z,102558.72
2024-01-29T21:22:13.291Z,102580.19
2024-01-29T21:24:39.932Z,102573.97
2024-01-29T21:27:06.995Z,102565.03
2024-01-29T21:29:33.728Z,102567.63
2024-01-29T21:32:00.417Z,102567.50
2024-01-29T21:34:27.065Z,102557.78
2024-01-29T21:36:54.115Z,102579.00
2024-01-29T21:39:20.743Z,102574.56
2024-01-29T21:41:47.535Z,102549.72
2024-01-29T21:44:14.060Z,102560.09
2024-01-29T21:46:40.613Z,102574.72
2024-01-29T21:49:07.888Z,102566.25
2024-01-29T21:51:35.531Z,102556.06
2024-01-29T21:54:02.219Z,102571.22
2024-01-29T21:56:28.899Z,102569.34
2024-01-29T21:58:55.530Z,102556.97
2024-01-29T22:01:22.263Z,102558.06
2024-01-29T22:03:48.965Z,102557.66
2024-01-29T22:06:21.890Z,102562.00
2024-01-29T22:08:48.524Z,102538.22
2024-01-29T22:11:15.118Z,102553.25
2024-01-29T22:13:44.657Z,102548.47
2024-01-29T22:16:11.326Z,102543.44
2024-01-29T22:18:38.051Z,102534.50
2024-01-29T22:21:05.745Z,102540.81
2024-01-29T22:23:32.263Z,102542.66
2024-01-29T22:25:58.869Z,102532.41
2024-01-29T22:28:25.577Z,102542.88
2024-01-29T22:30:52.215Z,102548.59
2024-01-29T22:33:19.490Z,102541.88
2024-01-29T22:35:46.197Z,102550.13
2024-01-29T22:38:13.810Z,102555.97
2024-01-29T22:40:40.374Z,102559.50
2024-01-29T22:43:06.941Z,102565.81
2024-01-29T22:45:33.430Z,102555.47
2024-01-29T22:48:00.843Z,102544.94
2024-01-29T22:50:27.981Z,102559.09
2024-01-29T22:52:54.782Z,102554.59
2024-01-29T22:55:24.234Z,102555.34
2024-01-29T22:57:51.045Z,102564.31
2024-01-29T23:00:23.264Z,102564.84
2024-01-29T23:02:49.839Z,102546.81
2024-01-29T23:05:16.647Z,102556.81
2024-01-29T23:07:43.339Z,102560.38
2024-01-29T23:10:10.687Z,102538.88
2024-01-29T23:12:37.406Z,102560.84
2024-01-29T23:15:04.704Z,102563.34
2024-01-29T23:17:31.510Z,102552.56
2024-01-29T23:19:58.216Z,102543.31
2024-01-29T23:22:24.845Z,102541.72
2024-01-29T23:24:51.414Z,102536.91
2024-01-29T23:27:18.823Z,102540.94
2024-01-29T23:29:45.443Z,102563.28
2024-01-29T23:32:12.133Z,102549.94
2024-01-29T23:34:38.987Z,102540.25
2024-01-29T23:37:05.604Z,102531.44
2024-01-29T23:39:32.210Z,102542.00
2024-01-29T23:41:58.744Z,102520.47
2024-01-29T23:44:25.469Z,102528.72
2024-01-29T23:46:51.959Z,102515.97
2024-01-29T23:49:18.566Z,102526.66
2024-01-29T23:51:45.212Z,102531.69
2024-01-29T23:54:11.761Z,102538.03
2024-01-29T23:56:38.322Z,102531.69
2024-01-29T23:59:04.835Z,102533.28
